Time;durP1;ratioP1;P1;durP2;ratioP2;P2;SDS_P1;SDS_P2;PMS_P1;PMS_P2;Temp;Humidity;BMP_temperature;BMP_pressure;BME280_temperature;BME280_humidity;BME280_pressure;Samples;Min_cycle;Max_cycle;Signal;HPM_P1;HPM_P2
2023/08/05 00:01:30;;;;;;;7.18;3.10;;;;;;;;;;5049670;28;20147;-80
2023/08/05 00:03:57;;;;;;;7.13;2.78;;;;;;;;;;5049746;28;20071;-80
2023/08/05 00:06:23;;;;;;;7.63;3.05;;;;;;;;;;5048544;28;20063;-82
2023/08/05 00:08:50;;;;;;;4.05;3.05;;;;;;;;;;5028883;28;20653;-79
2023/08/05 00:11:16;;;;;;;4.38;2.92;;;;;;;;;;5049848;28;20037;-79
2023/08/05 00:13:43;;;;;;;7.05;2.95;;;;;;;;;;5051923;28;20049;-78
2023/08/05 00:16:09;;;;;;;5.57;2.70;;;;;;;;;;5049974;28;20045;-79
2023/08/05 00:18:36;;;;;;;3.65;2.75;;;;;;;;;;5050139;28;20041;-78
2023/08/05 00:21:03;;;;;;;5.55;3.05;;;;;;;;;;5053600;28;20072;-80
2023/08/05 00:23:29;;;;;;;6.65;2.95;;;;;;;;;;5034308;28;20075;-79
2023/08/05 00:25:57;;;;;;;7.70;3.22;;;;;;;;;;5029168;28;20189;-79
2023/08/05 00:28:24;;;;;;;4.07;2.47;;;;;;;;;;5044041;28;20045;-78
2023/08/05 00:30:50;;;;;;;6.15;3.20;;;;;;;;;;5048719;28;20059;-79
2023/08/05 00:33:17;;;;;;;8.63;3.40;;;;;;;;;;5046424;28;20045;-77
2023/08/05 00:35:43;;;;;;;6.32;3.08;;;;;;;;;;5047766;28;20114;-78
2023/08/05 00:38:10;;;;;;;4.40;2.67;;;;;;;;;;5058858;28;20114;-78
2023/08/05 00:40:37;;;;;;;4.40;2.95;;;;;;;;;;5055837;28;20045;-80
2023/08/05 00:43:06;;;;;;;4.13;2.70;;;;;;;;;;5049991;28;20119;-80
2023/08/05 00:45:33;;;;;;;9.18;3.03;;;;;;;;;;5034528;28;20072;-81
2023/08/05 00:47:59;;;;;;;5.32;3.00;;;;;;;;;;5048433;28;20053;-80
2023/08/05 00:50:26;;;;;;;4.80;3.10;;;;;;;;;;5028640;28;20045;-79
2023/08/05 00:52:53;;;;;;;6.25;3.00;;;;;;;;;;5048159;28;20037;-80
2023/08/05 00:55:21;;;;;;;5.05;3.10;;;;;;;;;;5045982;28;20099;-80
2023/08/05 00:57:48;;;;;;;5.07;3.08;;;;;;;;;;5024341;28;20095;-79
2023/08/05 01:00:14;;;;;;;3.55;2.78;;;;;;;;;;5025068;28;20091;-79
2023/08/05 01:02:41;;;;;;;5.28;2.97;;;;;;;;;;5026806;28;20091;-80
2023/08/05 01:05:08;;;;;;;4.10;2.80;;;;;;;;;;5014428;28;20045;-78
2023/08/05 01:07:36;;;;;;;4.40;3.08;;;;;;;;;;5002485;28;20510;-81
2023/08/05 01:10:04;;;;;;;5.22;3.15;;;;;;;;;;5004871;28;20041;-80
2023/08/05 01:12:30;;;;;;;4.93;2.58;;;;;;;;;;5026844;28;20072;-79
2023/08/05 01:14:57;;;;;;;4.13;2.80;;;;;;;;;;5029789;28;20060;-80
2023/08/05 01:17:24;;;;;;;7.93;3.17;;;;;;;;;;5029766;28;20540;-80
2023/08/05 01:19:51;;;;;;;4.63;2.95;;;;;;;;;;5029532;28;20041;-79
2023/08/05 01:22:22;;;;;;;3.40;2.63;;;;;;;;;;5023667;28;20071;-79
2023/08/05 01:24:52;;;;;;;6.20;2.97;;;;;;;;;;5028905;28;20041;-80
2023/08/05 01:27:18;;;;;;;5.35;2.88;;;;;;;;;;5023538;28;20079;-80
2023/08/05 01:29:45;;;;;;;8.48;3.10;;;;;;;;;;5040919;28;20045;-79
2023/08/05 01:32:12;;;;;;;5.57;3.30;;;;;;;;;;5029372;28;20131;-79
2023/08/05 01:34:39;;;;;;;5.85;3.78;;;;;;;;;;5050209;28;20053;-80
2023/08/05 01:37:06;;;;;;;3.80;2.90;;;;;;;;;;5029140;28;20434;-80
2023/08/05 01:39:36;;;;;;;6.03;3.30;;;;;;;;;;5030808;28;20059;-81
2023/08/05 01:42:03;;;;;;;5.40;3.42;;;;;;;;;;5026726;28;20048;-79
2023/08/05 01:44:29;;;;;;;5.32;3.13;;;;;;;;;;5048220;28;20095;-79
2023/08/05 01:46:56;;;;;;;5.80;3.95;;;;;;;;;;5051069;28;20049;-79
2023/08/05 01:49:23;;;;;;;4.97;3.30;;;;;;;;;;5029221;28;20049;-78
2023/08/05 01:51:50;;;;;;;5.55;3.58;;;;;;;;;;5049714;28;20063;-79
2023/08/05 01:54:16;;;;;;;6.68;3.45;;;;;;;;;;5049141;28;20037;-79
2023/08/05 01:56:44;;;;;;;7.82;3.55;;;;;;;;;;5041950;28;20059;-81
2023/08/05 01:59:11;;;;;;;5.68;3.42;;;;;;;;;;5050162;28;20056;-82
2023/08/05 02:01:44;;;;;;;6.53;3.50;;;;;;;;;;5031761;28;20040;-80
2023/08/05 02:04:11;;;;;;;9.02;3.65;;;;;;;;;;5029123;28;20041;-79
2023/08/05 02:06:39;;;;;;;4.40;3.28;;;;;;;;;;5048459;28;20048;-82
2023/08/05 02:09:06;;;;;;;6.15;3.67;;;;;;;;;;5049432;28;20562;-80
2023/08/05 02:11:32;;;;;;;5.75;3.63;;;;;;;;;;5049075;28;20051;-80
2023/08/05 02:13:59;;;;;;;9.18;3.60;;;;;;;;;;5033290;28;20056;-81
2023/08/05 02:16:26;;;;;;;5.80;3.25;;;;;;;;;;5050326;28;20317;-80
2023/08/05 02:18:52;;;;;;;4.20;3.30;;;;;;;;;;5033650;28;20044;-81
2023/08/05 02:21:19;;;;;;;4.90;3.35;;;;;;;;;;5050078;28;20056;-78
2023/08/05 02:23:46;;;;;;;8.82;3.55;;;;;;;;;;5048722;28;20063;-79
2023/08/05 02:26:13;;;;;;;9.35;3.80;;;;;;;;;;5026384;28;20056;-80
2023/08/05 02:28:39;;;;;;;4.72;3.55;;;;;;;;;;5028199;28;20573;-81
2023/08/05 02:31:10;;;;;;;6.35;3.67;;;;;;;;;;5027728;28;20586;-79
2023/08/05 02:33:37;;;;;;;6.32;3.85;;;;;;;;;;5048536;28;20045;-78
2023/08/05 02:36:07;;;;;;;8.27;3.83;;;;;;;;;;5029873;28;20112;-80
2023/08/05 02:38:34;;;;;;;10.95;4.40;;;;;;;;;;5027731;28;20144;-79
2023/08/05 02:41:04;;;;;;;8.90;4.80;;;;;;;;;;5012583;28;20073;-79
2023/08/05 02:43:31;;;;;;;8.30;3.88;;;;;;;;;;5039246;28;20053;-79
2023/08/05 02:45:57;;;;;;;8.27;4.50;;;;;;;;;;5023720;28;20054;-80
2023/08/05 02:48:24;;;;;;;8.20;4.53;;;;;;;;;;5020609;28;20124;-79
2023/08/05 02:50:54;;;;;;;10.15;4.72;;;;;;;;;;5046751;28;20052;-79
2023/08/05 02:53:21;;;;;;;9.02;4.90;;;;;;;;;;5021049;28;20047;-80
2023/08/05 02:55:47;;;;;;;10.43;4.80;;;;;;;;;;5021314;28;20516;-78
2023/08/05 02:58:15;;;;;;;11.35;5.70;;;;;;;;;;5045802;28;20051;-80
2023/08/05 03:00:45;;;;;;;9.15;5.50;;;;;;;;;;5037195;28;20109;-79
2023/08/05 03:03:12;;;;;;;14.77;5.70;;;;;;;;;;5023222;28;20102;-80
2023/08/05 03:05:38;;;;;;;11.30;5.50;;;;;;;;;;5043593;28;20043;-80
2023/08/05 03:08:07;;;;;;;8.88;5.15;;;;;;;;;;5034865;28;20182;-78
2023/08/05 03:10:34;;;;;;;12.13;5.95;;;;;;;;;;5030818;28;20040;-79
2023/08/05 03:13:01;;;;;;;15.82;6.10;;;;;;;;;;5026325;28;20065;-78
2023/08/05 03:15:28;;;;;;;12.70;5.95;;;;;;;;;;5029225;28;20049;-78
2023/08/05 03:17:58;;;;;;;8.38;5.50;;;;;;;;;;5028579;28;20049;-80
2023/08/05 03:20:27;;;;;;;10.65;5.55;;;;;;;;;;5019090;28;20049;-80
2023/08/05 03:22:58;;;;;;;9.90;6.10;;;;;;;;;;5029438;28;20046;-79
2023/08/05 03:25:26;;;;;;;10.48;5.72;;;;;;;;;;5029464;28;20080;-81
2023/08/05 03:27:57;;;;;;;11.75;6.03;;;;;;;;;;5027604;28;20041;-79
2023/08/05 03:30:24;;;;;;;10.48;6.45;;;;;;;;;;5030426;28;20128;-81
2023/08/05 03:32:56;;;;;;;9.95;6.10;;;;;;;;;;5031829;28;20045;-79
2023/08/05 03:35:26;;;;;;;11.43;6.35;;;;;;;;;;5031949;28;20041;-79
2023/08/05 03:37:54;;;;;;;17.13;6.28;;;;;;;;;;5027576;28;20072;-77
2023/08/05 03:40:20;;;;;;;11.50;5.82;;;;;;;;;;5029718;28;20057;-78
2023/08/05 03:42:47;;;;;;;14.27;6.82;;;;;;;;;;5031257;28;20049;-78
2023/08/05 03:45:14;;;;;;;8.80;6.13;;;;;;;;;;5032067;28;20094;-80
2023/08/05 03:47:42;;;;;;;16.45;6.25;;;;;;;;;;5021691;28;20052;-80
2023/08/05 03:50:09;;;;;;;10.02;6.47;;;;;;;;;;5028587;28;20040;-80
2023/08/05 03:52:38;;;;;;;12.80;6.45;;;;;;;;;;5024256;28;20048;-79
2023/08/05 03:55:07;;;;;;;13.38;6.30;;;;;;;;;;5030341;28;20150;-79
2023/08/05 03:57:34;;;;;;;9.73;6.72;;;;;;;;;;5028530;28;20546;-78
2023/08/05 04:00:01;;;;;;;17.27;6.80;;;;;;;;;;5031372;28;20037;-79
2023/08/05 04:02:38;;;;;;;13.48;7.25;;;;;;;;;;5048170;28;20072;-80
2023/08/05 04:05:05;;;;;;;17.33;7.68;;;;;;;;;;5030591;28;20099;-80
2023/08/05 04:07:32;;;;;;;12.75;6.82;;;;;;;;;;5029985;28;20546;-80
2023/08/05 04:10:02;;;;;;;12.95;6.10;;;;;;;;;;5027459;28;20069;-80
2023/08/05 04:12:33;;;;;;;10.95;7.03;;;;;;;;;;5050069;28;20161;-79
2023/08/05 04:15:02;;;;;;;11.45;6.13;;;;;;;;;;5031219;28;20064;-79
2023/08/05 04:17:30;;;;;;;9.60;6.78;;;;;;;;;;5029925;28;20060;-80
2023/08/05 04:19:58;;;;;;;12.10;6.80;;;;;;;;;;5030870;28;20037;-81
2023/08/05 04:22:30;;;;;;;13.68;6.85;;;;;;;;;;5015003;28;20037;-79
2023/08/05 04:24:59;;;;;;;14.68;6.30;;;;;;;;;;5031823;28;20053;-80
2023/08/05 04:27:26;;;;;;;12.07;6.18;;;;;;;;;;5051628;28;20056;-79
2023/08/05 04:29:52;;;;;;;12.52;6.35;;;;;;;;;;5030739;28;20060;-79
2023/08/05 04:32:20;;;;;;;9.82;5.85;;;;;;;;;;5051014;28;20419;-79
2023/08/05 04:34:47;;;;;;;13.15;6.40;;;;;;;;;;5012579;28;20133;-79
2023/08/05 04:37:20;;;;;;;11.38;5.45;;;;;;;;;;5033218;28;20055;-79
2023/08/05 04:39:52;;;;;;;11.27;6.15;;;;;;;;;;5041491;28;20041;-78
2023/08/05 04:42:19;;;;;;;8.23;5.57;;;;;;;;;;5031554;28;20069;-79
2023/08/05 04:44:46;;;;;;;8.82;5.18;;;;;;;;;;5012615;28;20431;-81
2023/08/05 04:47:13;;;;;;;9.95;4.90;;;;;;;;;;5033191;28;20045;-78
2023/08/05 04:49:41;;;;;;;10.10;4.95;;;;;;;;;;5029579;28;20597;-80
2023/08/05 04:52:08;;;;;;;10.32;4.63;;;;;;;;;;5041011;28;20049;-78
2023/08/05 04:54:37;;;;;;;7.75;4.65;;;;;;;;;;5036613;28;20054;-79
2023/08/05 04:57:04;;;;;;;8.60;4.35;;;;;;;;;;5029979;28;20152;-77
2023/08/05 04:59:31;;;;;;;8.95;4.25;;;;;;;;;;5048130;28;20045;-80
2023/08/05 05:01:58;;;;;;;9.05;3.75;;;;;;;;;;5045345;28;20057;-79
2023/08/05 05:04:24;;;;;;;7.40;3.80;;;;;;;;;;5013366;28;20049;-79
2023/08/05 05:06:51;;;;;;;11.32;3.83;;;;;;;;;;5029918;28;20045;-78
2023/08/05 05:09:18;;;;;;;6.22;3.55;;;;;;;;;;5011498;28;20072;-78
2023/08/05 05:11:45;;;;;;;6.82;3.67;;;;;;;;;;5028449;28;21138;-79
2023/08/05 05:14:11;;;;;;;8.68;4.00;;;;;;;;;;5028576;28;20045;-78
2023/08/05 05:16:38;;;;;;;9.27;3.60;;;;;;;;;;5028325;28;20492;-79
2023/08/05 05:19:04;;;;;;;8.00;3.55;;;;;;;;;;5028257;28;20076;-78
2023/08/05 05:21:31;;;;;;;8.82;3.22;;;;;;;;;;5026292;28;20432;-79
2023/08/05 05:23:57;;;;;;;5.35;3.03;;;;;;;;;;5003800;28;20451;-80
2023/08/05 05:26:24;;;;;;;6.95;3.20;;;;;;;;;;5026443;28;20049;-81
2023/08/05 05:28:51;;;;;;;6.13;3.30;;;;;;;;;;5038962;28;20049;-79
2023/08/05 05:31:18;;;;;;;5.20;3.00;;;;;;;;;;5017863;28;20073;-80
2023/08/05 05:33:47;;;;;;;6.03;3.33;;;;;;;;;;5028622;28;20068;-79
2023/08/05 05:36:14;;;;;;;4.40;3.17;;;;;;;;;;5051460;28;20056;-81
2023/08/05 05:38:41;;;;;;;6.15;3.13;;;;;;;;;;5054510;28;20121;-79
2023/08/05 05:41:07;;;;;;;5.43;3.15;;;;;;;;;;5047569;28;20088;-79
2023/08/05 05:43:35;;;;;;;6.03;2.83;;;;;;;;;;5046047;28;20456;-81
2023/08/05 05:46:02;;;;;;;4.97;2.70;;;;;;;;;;5030546;28;20075;-79
2023/08/05 05:48:29;;;;;;;7.05;3.28;;;;;;;;;;5028092;28;20235;-79
2023/08/05 05:50:56;;;;;;;7.13;3.50;;;;;;;;;;5026930;28;20049;-80
2023/08/05 05:53:22;;;;;;;4.95;3.05;;;;;;;;;;5045814;28;20041;-80
2023/08/05 05:55:55;;;;;;;6.55;2.97;;;;;;;;;;5026463;28;20068;-78
2023/08/05 05:58:21;;;;;;;6.60;3.03;;;;;;;;;;5049937;28;20082;-80
2023/08/05 06:00:53;;;;;;;9.38;3.05;;;;;;;;;;5036988;28;20103;-80
2023/08/05 06:03:19;;;;;;;4.88;2.75;;;;;;;;;;5060088;28;20064;-79
2023/08/05 06:05:47;;;;;;;6.32;2.83;;;;;;;;;;5042864;28;20047;-80
2023/08/05 06:08:14;;;;;;;5.30;2.85;;;;;;;;;;5059902;28;20264;-79
2023/08/05 06:10:40;;;;;;;4.82;2.80;;;;;;;;;;5061048;28;20052;-79
2023/08/05 06:13:07;;;;;;;9.43;2.97;;;;;;;;;;5059603;28;20041;-79
2023/08/05 06:15:40;;;;;;;8.18;3.00;;;;;;;;;;5053138;28;20053;-78
2023/08/05 06:18:08;;;;;;;10.13;3.15;;;;;;;;;;5050633;28;20045;-80
2023/08/05 06:20:34;;;;;;;5.00;3.00;;;;;;;;;;5032357;28;20100;-79
2023/08/05 06:23:01;;;;;;;13.35;3.13;;;;;;;;;;5028802;28;20061;-81
2023/08/05 06:25:28;;;;;;;5.53;2.78;;;;;;;;;;5024569;28;20050;-78
2023/08/05 06:27:54;;;;;;;4.43;2.92;;;;;;;;;;5025062;28;20046;-80
2023/08/05 06:30:21;;;;;;;6.90;3.05;;;;;;;;;;5027539;28;20045;-80
2023/08/05 06:32:49;;;;;;;8.95;2.80;;;;;;;;;;5028922;28;20092;-81
2023/08/05 06:35:15;;;;;;;6.82;3.05;;;;;;;;;;5028938;28;20037;-80
2023/08/05 06:37:43;;;;;;;7.65;2.72;;;;;;;;;;5025386;28;20057;-81
2023/08/05 06:40:10;;;;;;;5.90;2.90;;;;;;;;;;5035259;28;20858;-80
2023/08/05 06:42:37;;;;;;;5.15;2.55;;;;;;;;;;5016426;28;20050;-80
2023/08/05 06:45:04;;;;;;;6.97;2.50;;;;;;;;;;5036009;28;20071;-81
2023/08/05 06:47:31;;;;;;;7.30;3.30;;;;;;;;;;5023736;28;20045;-79
2023/08/05 06:49:58;;;;;;;6.78;2.88;;;;;;;;;;5043766;28;20390;-79
2023/08/05 06:52:24;;;;;;;4.38;2.47;;;;;;;;;;5041885;28;20187;-80
2023/08/05 06:54:51;;;;;;;5.10;2.33;;;;;;;;;;5041485;28;20045;-83
2023/08/05 06:57:18;;;;;;;4.18;2.38;;;;;;;;;;5045421;28;20098;-81
2023/08/05 06:59:45;;;;;;;3.55;2.40;;;;;;;;;;5043295;28;20041;-81
2023/08/05 07:02:12;;;;;;;7.13;2.58;;;;;;;;;;5032200;28;20034;-78
2023/08/05 07:04:39;;;;;;;5.53;2.70;;;;;;;;;;5043581;28;20049;-80
2023/08/05 07:07:05;;;;;;;5.63;2.80;;;;;;;;;;5042168;28;20377;-80
2023/08/05 07:09:32;;;;;;;5.38;2.72;;;;;;;;;;5025998;28;20053;-82
2023/08/05 07:11:59;;;;;;;4.72;2.75;;;;;;;;;;5046446;28;20560;-81
2023/08/05 07:14:25;;;;;;;6.90;2.72;;;;;;;;;;5049748;28;20051;-82
2023/08/05 07:16:52;;;;;;;7.63;2.20;;;;;;;;;;5054595;28;20075;-82
2023/08/05 07:19:19;;;;;;;7.53;2.45;;;;;;;;;;5052349;28;20516;-80
2023/08/05 07:21:45;;;;;;;4.13;2.47;;;;;;;;;;5048987;28;20095;-81
2023/08/05 07:24:12;;;;;;;5.05;2.78;;;;;;;;;;5049020;28;20067;-79
2023/08/05 07:26:39;;;;;;;6.10;2.50;;;;;;;;;;5049472;28;20045;-80
2023/08/05 07:29:05;;;;;;;6.38;2.85;;;;;;;;;;5049051;28;20048;-81
2023/08/05 07:31:32;;;;;;;7.57;4.30;;;;;;;;;;5049003;28;20053;-80
2023/08/05 07:33:59;;;;;;;5.20;3.10;;;;;;;;;;5015447;28;20049;-81
2023/08/05 07:36:27;;;;;;;4.22;2.65;;;;;;;;;;5026865;28;20056;-80
2023/08/05 07:38:54;;;;;;;9.18;2.67;;;;;;;;;;5029463;28;20042;-80
2023/08/05 07:41:23;;;;;;;8.18;2.25;;;;;;;;;;5026398;28;20045;-80
2023/08/05 07:43:50;;;;;;;5.55;2.28;;;;;;;;;;5028106;28;20057;-79
2023/08/05 07:46:19;;;;;;;5.57;2.30;;;;;;;;;;5028331;28;20041;-78
2023/08/05 07:48:49;;;;;;;4.60;2.10;;;;;;;;;;5018420;28;20037;-82
2023/08/05 07:51:18;;;;;;;4.63;2.20;;;;;;;;;;5034312;28;20065;-80
2023/08/05 07:53:47;;;;;;;4.88;2.42;;;;;;;;;;5024667;28;20056;-82
2023/08/05 07:56:14;;;;;;;3.42;2.05;;;;;;;;;;5034258;28;20063;-81
2023/08/05 07:58:44;;;;;;;5.10;2.30;;;;;;;;;;5048206;28;20083;-81
2023/08/05 08:01:13;;;;;;;7.78;2.63;;;;;;;;;;5059739;28;20522;-79
2023/08/05 08:03:41;;;;;;;4.85;2.70;;;;;;;;;;5048307;28;20037;-78
2023/08/05 08:06:08;;;;;;;5.28;2.35;;;;;;;;;;5010721;28;20068;-76
2023/08/05 08:08:35;;;;;;;5.97;2.80;;;;;;;;;;5051305;28;20041;-80
2023/08/05 08:11:01;;;;;;;4.68;2.33;;;;;;;;;;5048265;28;20488;-80
2023/08/05 08:13:28;;;;;;;5.88;2.40;;;;;;;;;;5029671;28;20745;-81
2023/08/05 08:15:54;;;;;;;5.50;2.45;;;;;;;;;;5049575;28;20063;-80
2023/08/05 08:18:21;;;;;;;4.93;2.58;;;;;;;;;;5049249;28;20091;-79
2023/08/05 08:20:51;;;;;;;5.35;2.42;;;;;;;;;;5049596;28;20055;-80
2023/08/05 08:23:18;;;;;;;4.25;2.63;;;;;;;;;;5029427;28;20049;-80
2023/08/05 08:25:45;;;;;;;7.25;2.60;;;;;;;;;;5031694;28;20045;-79
2023/08/05 08:28:12;;;;;;;4.57;2.42;;;;;;;;;;5042721;28;20052;-80
2023/08/05 08:30:38;;;;;;;5.88;2.33;;;;;;;;;;5043132;28;20056;-79
2023/08/05 08:33:05;;;;;;;8.23;2.67;;;;;;;;;;5026676;28;20157;-78
2023/08/05 08:35:32;;;;;;;5.57;2.35;;;;;;;;;;5036783;28;20049;-80
2023/08/05 08:37:59;;;;;;;6.32;2.60;;;;;;;;;;5033598;28;20025;-79
2023/08/05 08:40:25;;;;;;;5.60;2.88;;;;;;;;;;5041488;28;20041;-80
2023/08/05 08:42:52;;;;;;;4.50;2.50;;;;;;;;;;5037611;28;20124;-79
2023/08/05 08:45:20;;;;;;;5.45;2.70;;;;;;;;;;5029571;28;20423;-80
2023/08/05 08:47:47;;;;;;;5.60;2.58;;;;;;;;;;5020160;28;20046;-81
2023/08/05 08:50:16;;;;;;;4.75;2.40;;;;;;;;;;5017716;28;20563;-81
2023/08/05 08:52:42;;;;;;;5.10;2.45;;;;;;;;;;5027407;28;20097;-80
2023/08/05 08:55:09;;;;;;;5.13;2.25;;;;;;;;;;5035748;28;20431;-79
2023/08/05 08:57:35;;;;;;;5.03;2.50;;;;;;;;;;5046106;28;21051;-81
2023/08/05 09:00:03;;;;;;;5.95;2.53;;;;;;;;;;5047853;28;20033;-79
2023/08/05 09:02:30;;;;;;;6.05;3.13;;;;;;;;;;5046844;28;20037;-79
2023/08/05 09:04:57;;;;;;;4.00;2.38;;;;;;;;;;5047300;28;20090;-81
2023/08/05 09:07:25;;;;;;;4.63;2.20;;;;;;;;;;5023101;28;20072;-80
2023/08/05 09:09:53;;;;;;;3.90;2.33;;;;;;;;;;5047086;28;20548;-79
2023/08/05 09:12:19;;;;;;;3.92;2.35;;;;;;;;;;5049053;28;20075;-78
2023/08/05 09:14:55;;;;;;;6.45;2.28;;;;;;;;;;5031414;28;20051;-82
2023/08/05 09:17:22;;;;;;;;;;;;;;;;;;5026560;28;20054;-82
2023/08/05 09:19:48;;;;;;;4.20;2.38;;;;;;;;;;5028294;28;20345;-79
2023/08/05 09:22:15;;;;;;;4.47;1.88;;;;;;;;;;5024628;28;20044;-80
2023/08/05 09:24:41;;;;;;;3.20;1.80;;;;;;;;;;5024569;28;20508;-80
2023/08/05 09:27:08;;;;;;;4.28;2.13;;;;;;;;;;5025025;28;20045;-80
2023/08/05 09:29:36;;;;;;;4.30;1.80;;;;;;;;;;5028039;28;20033;-81
2023/08/05 09:32:04;;;;;;;5.78;2.00;;;;;;;;;;5010784;28;20068;-79
2023/08/05 09:34:38;;;;;;;6.57;2.22;;;;;;;;;;5027442;28;20075;-84
2023/08/05 09:37:07;;;;;;;3.92;2.00;;;;;;;;;;5027937;28;20454;-81
2023/08/05 09:39:51;;;;;;;3.17;1.70;;;;;;;;;;5041040;28;20061;-80
2023/08/05 09:42:25;;;;;;;2.65;1.80;;;;;;;;;;5023965;28;20049;-81
2023/08/05 09:44:54;;;;;;;6.65;2.35;;;;;;;;;;5021674;28;20819;-80
2023/08/05 09:47:25;;;;;;;5.50;2.08;;;;;;;;;;5024484;28;20041;-80
2023/08/05 09:49:52;;;;;;;3.90;1.92;;;;;;;;;;5029381;28;20056;-80
2023/08/05 09:52:21;;;;;;;2.30;1.67;;;;;;;;;;5025439;28;20042;-80
2023/08/05 09:54:59;;;;;;;3.20;1.90;;;;;;;;;;5021618;28;20052;-80
2023/08/05 09:57:26;;;;;;;2.85;1.60;;;;;;;;;;5023513;28;20068;-80
2023/08/05 09:59:58;;;;;;;3.33;1.52;;;;;;;;;;5024704;28;20033;-82
2023/08/05 10:02:25;;;;;;;2.60;1.55;;;;;;;;;;5027999;28;20053;-80
2023/08/05 10:04:53;;;;;;;4.90;1.83;;;;;;;;;;5017405;28;20741;-80
2023/08/05 10:07:22;;;;;;;6.03;1.88;;;;;;;;;;5025508;28;20125;-79
2023/08/05 10:09:49;;;;;;;4.68;1.35;;;;;;;;;;5027079;28;20060;-81
2023/08/05 10:12:26;;;;;;;3.95;1.50;;;;;;;;;;5047598;28;22958;-79
2023/08/05 10:14:55;;;;;;;2.58;1.60;;;;;;;;;;5025630;28;20041;-80
2023/08/05 10:17:22;;;;;;;4.35;1.70;;;;;;;;;;5029738;28;20072;-81
2023/08/05 10:19:52;;;;;;;3.90;1.73;;;;;;;;;;5010504;28;20069;-81
2023/08/05 10:22:22;;;;;;;3.10;1.45;;;;;;;;;;5010838;28;20080;-81
2023/08/05 10:24:49;;;;;;;2.95;1.42;;;;;;;;;;5031043;28;20060;-80
2023/08/05 10:27:15;;;;;;;3.00;1.63;;;;;;;;;;5028414;28;20118;-82
2023/08/05 10:29:57;;;;;;;2.53;1.55;;;;;;;;;;5031486;28;20049;-80
2023/08/05 10:32:28;;;;;;;3.75;1.40;;;;;;;;;;5032958;28;20057;-79
2023/08/05 10:35:14;;;;;;;4.75;1.80;;;;;;;;;;5013422;28;20049;-82
2023/08/05 10:37:47;;;;;;;3.10;1.13;;;;;;;;;;5049389;28;20053;-83
2023/08/05 10:40:33;;;;;;;3.70;1.60;;;;;;;;;;5028037;28;20739;-81
2023/08/05 10:43:00;;;;;;;2.72;1.50;;;;;;;;;;5023695;28;20049;-81
2023/08/05 10:45:27;;;;;;;2.60;1.50;;;;;;;;;;5009563;28;20059;-81
2023/08/05 10:47:53;;;;;;;2.90;1.40;;;;;;;;;;5029685;28;20045;-83
2023/08/05 10:50:20;;;;;;;3.33;1.58;;;;;;;;;;5027721;28;20052;-77
2023/08/05 10:52:49;;;;;;;3.78;1.27;;;;;;;;;;5024205;28;20061;-83
2023/08/05 10:55:23;;;;;;;4.45;1.42;;;;;;;;;;5009182;28;20061;-81
2023/08/05 10:57:52;;;;;;;5.32;1.40;;;;;;;;;;5029194;28;20041;-82
2023/08/05 11:00:20;;;;;;;3.45;1.23;;;;;;;;;;5009909;28;20054;-82
2023/08/05 11:02:49;;;;;;;2.30;1.30;;;;;;;;;;5027878;28;20046;-80
2023/08/05 11:05:16;;;;;;;3.25;1.13;;;;;;;;;;5029318;28;20059;-79
2023/08/05 11:07:43;;;;;;;4.25;1.52;;;;;;;;;;5010830;28;20054;-82
2023/08/05 11:10:09;;;;;;;6.15;1.48;;;;;;;;;;5021067;28;20049;-81
2023/08/05 11:12:39;;;;;;;3.88;1.60;;;;;;;;;;5027385;28;20140;-80
2023/08/05 11:15:06;;;;;;;3.63;1.45;;;;;;;;;;5029304;28;20038;-82
2023/08/05 11:17:33;;;;;;;2.72;1.40;;;;;;;;;;5010073;28;20049;-81
2023/08/05 11:19:59;;;;;;;2.05;1.13;;;;;;;;;;5028940;28;20049;-80
2023/08/05 11:22:27;;;;;;;5.45;1.60;;;;;;;;;;5027243;28;20064;-80
2023/08/05 11:25:00;;;;;;;2.25;1.15;;;;;;;;;;5011311;28;20175;-79
2023/08/05 11:27:38;;;;;;;6.80;1.13;;;;;;;;;;5014324;28;20106;-80
2023/08/05 11:30:16;;;;;;;3.20;1.17;;;;;;;;;;5051749;28;20576;-78
2023/08/05 11:32:56;;;;;;;2.45;1.27;;;;;;;;;;5039136;28;20041;-79
2023/08/05 11:35:24;;;;;;;3.28;1.10;;;;;;;;;;5049963;28;20049;-80
2023/08/05 11:37:51;;;;;;;3.95;1.15;;;;;;;;;;5061107;28;20687;-80
2023/08/05 11:40:17;;;;;;;2.30;1.30;;;;;;;;;;5018036;28;20061;-77
2023/08/05 11:42:44;;;;;;;2.92;1.10;;;;;;;;;;5038223;28;20379;-79
2023/08/05 11:45:14;;;;;;;2.20;1.02;;;;;;;;;;5056939;28;20053;-80
2023/08/05 11:47:41;;;;;;;6.03;1.30;;;;;;;;;;5041450;28;20060;-78
2023/08/05 11:50:09;;;;;;;2.53;1.30;;;;;;;;;;5030950;28;20262;-80
2023/08/05 11:52:36;;;;;;;3.55;1.20;;;;;;;;;;5047546;28;20418;-80
2023/08/05 11:55:07;;;;;;;4.35;1.30;;;;;;;;;;5026723;28;20041;-80
2023/08/05 11:57:33;;;;;;;5.88;1.17;;;;;;;;;;5023703;28;20068;-81
2023/08/05 12:00:04;;;;;;;2.58;1.20;;;;;;;;;;5028532;28;20047;-82
2023/08/05 12:02:32;;;;;;;2.15;1.15;;;;;;;;;;5025237;28;20432;-80
2023/08/05 12:04:59;;;;;;;2.97;1.50;;;;;;;;;;5028068;28;20041;-80
2023/08/05 12:07:30;;;;;;;4.57;1.20;;;;;;;;;;5026432;28;20041;-81
2023/08/05 12:10:09;;;;;;;2.47;1.00;;;;;;;;;;5026830;28;20522;-80
2023/08/05 12:12:36;;;;;;;3.13;1.35;;;;;;;;;;5023419;28;20595;-79
2023/08/05 12:15:12;;;;;;;4.88;1.45;;;;;;;;;;5010320;28;20045;-79
2023/08/05 12:17:39;;;;;;;2.65;1.15;;;;;;;;;;5030708;28;20053;-78
2023/08/05 12:20:09;;;;;;;5.20;1.42;;;;;;;;;;5031733;28;20076;-78
2023/08/05 12:22:36;;;;;;;1.95;1.08;;;;;;;;;;5012556;28;20042;-78
2023/08/05 12:25:03;;;;;;;3.05;1.20;;;;;;;;;;5046640;28;20060;-81
2023/08/05 12:27:31;;;;;;;2.80;1.15;;;;;;;;;;5044934;28;20061;-81
2023/08/05 12:29:58;;;;;;;2.55;1.20;;;;;;;;;;5029646;28;20041;-81
2023/08/05 12:32:24;;;;;;;1.80;1.20;;;;;;;;;;5003789;28;20075;-81
2023/08/05 12:34:51;;;;;;;2.17;1.10;;;;;;;;;;5026831;28;20401;-80
2023/08/05 12:37:18;;;;;;;3.55;1.20;;;;;;;;;;5045418;28;20049;-81
2023/08/05 12:39:44;;;;;;;2.97;1.13;;;;;;;;;;5028379;28;20544;-81
2023/08/05 12:42:11;;;;;;;4.47;1.35;;;;;;;;;;5010916;28;20071;-80
2023/08/05 12:44:38;;;;;;;3.33;1.30;;;;;;;;;;5027299;28;20041;-80
2023/08/05 12:47:04;;;;;;;4.25;1.13;;;;;;;;;;5049493;28;20067;-82
2023/08/05 12:49:31;;;;;;;2.50;1.05;;;;;;;;;;5028748;28;20100;-81
2023/08/05 12:51:58;;;;;;;2.67;1.25;;;;;;;;;;5047253;28;20059;-82
2023/08/05 12:54:25;;;;;;;2.03;1.05;;;;;;;;;;5047369;28;20057;-80
2023/08/05 12:56:51;;;;;;;1.85;1.10;;;;;;;;;;5025519;28;20049;-80
2023/08/05 12:59:18;;;;;;;4.43;1.23;;;;;;;;;;5027588;28;20067;-79
2023/08/05 13:01:45;;;;;;;3.85;1.15;;;;;;;;;;5031560;28;20041;-79
2023/08/05 13:04:12;;;;;;;2.00;0.93;;;;;;;;;;5050097;28;20037;-82
2023/08/05 13:06:38;;;;;;;3.63;1.00;;;;;;;;;;5049766;28;20044;-82
2023/08/05 13:09:05;;;;;;;2.47;1.20;;;;;;;;;;5033568;28;20115;-80
2023/08/05 13:11:32;;;;;;;1.90;1.20;;;;;;;;;;5045814;28;20056;-79
2023/08/05 13:13:58;;;;;;;1.80;1.13;;;;;;;;;;5045587;28;20067;-80
2023/08/05 13:16:25;;;;;;;1.75;1.00;;;;;;;;;;5052929;28;20076;-80
2023/08/05 13:18:52;;;;;;;3.55;1.20;;;;;;;;;;5047401;28;20626;-80
2023/08/05 13:21:18;;;;;;;2.65;1.00;;;;;;;;;;5052073;28;20488;-79
2023/08/05 13:23:45;;;;;;;3.38;1.10;;;;;;;;;;5048324;28;20061;-81
2023/08/05 13:26:11;;;;;;;3.30;1.05;;;;;;;;;;5021728;28;20125;-79
2023/08/05 13:28:38;;;;;;;3.50;1.42;;;;;;;;;;5029530;28;20064;-79
2023/08/05 13:31:05;;;;;;;4.18;1.30;;;;;;;;;;5031497;28;20055;-81
2023/08/05 13:33:32;;;;;;;2.42;1.40;;;;;;;;;;5047868;28;21009;-80
2023/08/05 13:36:00;;;;;;;2.35;1.30;;;;;;;;;;5038529;28;20048;-81
2023/08/05 13:38:27;;;;;;;2.30;1.10;;;;;;;;;;5041452;28;20613;-80
2023/08/05 13:40:54;;;;;;;3.10;1.20;;;;;;;;;;5022492;28;20064;-81
2023/08/05 13:43:21;;;;;;;3.67;1.20;;;;;;;;;;5036837;28;20418;-81
2023/08/05 13:45:51;;;;;;;6.60;1.30;;;;;;;;;;5044253;28;20056;-79
2023/08/05 13:48:18;;;;;;;2.85;1.27;;;;;;;;;;5001757;28;20057;-79
2023/08/05 13:50:44;;;;;;;3.25;1.27;;;;;;;;;;5015940;28;20081;-80
2023/08/05 13:53:11;;;;;;;4.55;1.27;;;;;;;;;;5018933;28;20049;-83
2023/08/05 13:55:38;;;;;;;3.17;1.33;;;;;;;;;;5039704;28;20059;-80
2023/08/05 13:58:05;;;;;;;2.83;1.33;;;;;;;;;;5042083;28;20290;-80
2023/08/05 14:00:35;;;;;;;1.77;1.20;;;;;;;;;;5024671;28;20045;-80
2023/08/05 14:03:02;;;;;;;3.03;1.30;;;;;;;;;;5031337;28;20537;-81
2023/08/05 14:05:28;;;;;;;3.60;1.23;;;;;;;;;;5038952;28;20678;-82
2023/08/05 14:07:55;;;;;;;2.70;1.35;;;;;;;;;;5041630;28;20522;-81
2023/08/05 14:10:24;;;;;;;2.85;1.38;;;;;;;;;;5023789;28;20359;-80
2023/08/05 14:12:50;;;;;;;1.55;1.00;;;;;;;;;;5019946;28;20045;-82
2023/08/05 14:15:17;;;;;;;2.60;1.25;;;;;;;;;;5041834;28;20045;-81
2023/08/05 14:17:43;;;;;;;2.22;1.20;;;;;;;;;;5042807;28;20080;-79
2023/08/05 14:20:10;;;;;;;2.78;1.17;;;;;;;;;;5022027;28;20038;-81
2023/08/05 14:22:38;;;;;;;3.10;1.23;;;;;;;;;;5042174;28;20151;-82
2023/08/05 14:25:04;;;;;;;1.42;0.90;;;;;;;;;;5023109;28;20071;-80
2023/08/05 14:27:31;;;;;;;3.30;1.10;;;;;;;;;;5040391;28;20070;-81
2023/08/05 14:29:58;;;;;;;2.03;1.10;;;;;;;;;;5041036;28;20071;-82
2023/08/05 14:32:44;;;;;;;2.95;1.20;;;;;;;;;;5042335;28;20045;-80
2023/08/05 14:35:11;;;;;;;2.00;1.30;;;;;;;;;;5042772;28;20294;-80
2023/08/05 14:37:37;;;;;;;1.63;1.10;;;;;;;;;;5041489;28;20142;-81
2023/08/05 14:40:04;;;;;;;1.73;1.00;;;;;;;;;;5041765;28;20489;-81
2023/08/05 14:42:31;;;;;;;5.85;1.42;;;;;;;;;;5051711;28;20040;-81
2023/08/05 14:44:57;;;;;;;2.47;1.10;;;;;;;;;;5032957;28;20053;-81